sensor_id;sensor_type;location;lat;lon;timestamp;P1;durP1;ratioP1;P2;durP2;ratioP2
11046;SDS011;5576;50.008;10.596;2023-08-12T00:00:33;5.00;;;4.20;;
11046;SDS011;5576;50.008;10.596;2023-08-12T00:02:59;5.30;;;4.10;;
11046;SDS011;5576;50.008;10.596;2023-08-12T00:05:24;4.28;;;3.85;;
11046;SDS011;5576;50.008;10.596;2023-08-12T00:07:50;4.10;;;3.70;;
11046;SDS011;5576;50.008;10.596;2023-08-12T00:10:16;5.63;;;3.90;;
11046;SDS011;5576;50.008;10.596;2023-08-12T00:12:42;4.25;;;3.85;;
11046;SDS011;5576;50.008;10.596;2023-08-12T00:15:08;4.70;;;4.10;;
11046;SDS011;5576;50.008;10.596;2023-08-12T00:17:35;5.22;;;3.95;;
11046;SDS011;5576;50.008;10.596;2023-08-12T00:20:02;4.93;;;4.13;;
11046;SDS011;5576;50.008;10.596;2023-08-12T00:22:31;4.18;;;3.80;;
11046;SDS011;5576;50.008;10.596;2023-08-12T00:24:57;4.90;;;3.80;;
11046;SDS011;5576;50.008;10.596;2023-08-12T00:27:22;4.70;;;4.00;;
11046;SDS011;5576;50.008;10.596;2023-08-12T00:29:48;4.40;;;3.80;;
11046;SDS011;5576;50.008;10.596;2023-08-12T00:32:14;4.70;;;4.20;;
11046;SDS011;5576;50.008;10.596;2023-08-12T00:34:39;4.35;;;3.95;;
11046;SDS011;5576;50.008;10.596;2023-08-12T00:37:05;5.07;;;3.97;;
11046;SDS011;5576;50.008;10.596;2023-08-12T00:39:31;4.57;;;3.97;;
11046;SDS011;5576;50.008;10.596;2023-08-12T00:41:56;4.38;;;3.97;;
11046;SDS011;5576;50.008;10.596;2023-08-12T00:44:22;4.65;;;4.00;;
11046;SDS011;5576;50.008;10.596;2023-08-12T00:46:48;4.10;;;3.80;;
11046;SDS011;5576;50.008;10.596;2023-08-12T00:49:14;4.75;;;3.85;;
11046;SDS011;5576;50.008;10.596;2023-08-12T00:51:41;5.57;;;4.47;;
11046;SDS011;5576;50.008;10.596;2023-08-12T00:54:11;4.63;;;3.88;;
11046;SDS011;5576;50.008;10.596;2023-08-12T00:56:39;4.43;;;4.00;;
11046;SDS011;5576;50.008;10.596;2023-08-12T00:59:07;6.33;;;4.27;;
11046;SDS011;5576;50.008;10.596;2023-08-12T01:01:35;4.60;;;4.20;;
11046;SDS011;5576;50.008;10.596;2023-08-12T01:04:05;4.20;;;3.80;;
11046;SDS011;5576;50.008;10.596;2023-08-12T01:06:31;4.95;;;4.00;;
11046;SDS011;5576;50.008;10.596;2023-08-12T01:08:57;5.23;;;4.63;;
11046;SDS011;5576;50.008;10.596;2023-08-12T01:11:26;4.45;;;4.05;;
11046;SDS011;5576;50.008;10.596;2023-08-12T01:14:04;4.85;;;4.20;;
11046;SDS011;5576;50.008;10.596;2023-08-12T01:16:42;4.55;;;4.10;;
11046;SDS011;5576;50.008;10.596;2023-08-12T01:19:12;4.25;;;3.85;;
11046;SDS011;5576;50.008;10.596;2023-08-12T01:21:49;4.70;;;3.97;;
11046;SDS011;5576;50.008;10.596;2023-08-12T01:24:21;4.23;;;3.83;;
11046;SDS011;5576;50.008;10.596;2023-08-12T01:26:47;4.43;;;4.03;;
11046;SDS011;5576;50.008;10.596;2023-08-12T01:29:13;4.85;;;4.00;;
11046;SDS011;5576;50.008;10.596;2023-08-12T01:31:43;5.10;;;4.07;;
11046;SDS011;5576;50.008;10.596;2023-08-12T01:36:46;4.38;;;3.97;;
11046;SDS011;5576;50.008;10.596;2023-08-12T01:39:17;4.68;;;4.13;;
11046;SDS011;5576;50.008;10.596;2023-08-12T01:41:44;5.30;;;4.38;;
11046;SDS011;5576;50.008;10.596;2023-08-12T01:44:11;4.97;;;4.00;;
11046;SDS011;5576;50.008;10.596;2023-08-12T01:46:37;4.60;;;4.10;;
11046;SDS011;5576;50.008;10.596;2023-08-12T01:49:02;5.37;;;4.40;;
11046;SDS011;5576;50.008;10.596;2023-08-12T01:51:28;5.25;;;4.45;;
11046;SDS011;5576;50.008;10.596;2023-08-12T01:53:54;4.38;;;3.97;;
11046;SDS011;5576;50.008;10.596;2023-08-12T01:56:20;5.10;;;4.40;;
11046;SDS011;5576;50.008;10.596;2023-08-12T01:58:46;5.25;;;4.35;;
11046;SDS011;5576;50.008;10.596;2023-08-12T02:01:12;4.87;;;4.00;;
11046;SDS011;5576;50.008;10.596;2023-08-12T02:03:37;4.40;;;4.00;;
11046;SDS011;5576;50.008;10.596;2023-08-12T02:06:05;6.15;;;4.53;;
11046;SDS011;5576;50.008;10.596;2023-08-12T02:08:31;4.47;;;4.07;;
11046;SDS011;5576;50.008;10.596;2023-08-12T02:10:57;5.03;;;4.40;;
11046;SDS011;5576;50.008;10.596;2023-08-12T02:13:22;4.67;;;4.27;;
11046;SDS011;5576;50.008;10.596;2023-08-12T02:15:48;4.90;;;4.40;;
11046;SDS011;5576;50.008;10.596;2023-08-12T02:18:14;4.68;;;4.13;;
11046;SDS011;5576;50.008;10.596;2023-08-12T02:20:40;4.93;;;4.23;;
11046;SDS011;5576;50.008;10.596;2023-08-12T02:23:06;4.43;;;4.00;;
11046;SDS011;5576;50.008;10.596;2023-08-12T02:25:32;4.57;;;4.18;;
11046;SDS011;5576;50.008;10.596;2023-08-12T02:27:58;5.82;;;4.22;;
11046;SDS011;5576;50.008;10.596;2023-08-12T02:30:24;5.67;;;4.10;;
11046;SDS011;5576;50.008;10.596;2023-08-12T02:32:50;4.53;;;4.07;;
11046;SDS011;5576;50.008;10.596;2023-08-12T02:35:17;4.30;;;3.83;;
11046;SDS011;5576;50.008;10.596;2023-08-12T02:37:43;4.80;;;4.40;;
11046;SDS011;5576;50.008;10.596;2023-08-12T02:40:09;4.45;;;4.05;;
11046;SDS011;5576;50.008;10.596;2023-08-12T02:42:36;4.47;;;4.07;;
11046;SDS011;5576;50.008;10.596;2023-08-12T02:45:02;6.10;;;4.22;;
11046;SDS011;5576;50.008;10.596;2023-08-12T02:47:28;5.28;;;4.40;;
11046;SDS011;5576;50.008;10.596;2023-08-12T02:49:53;4.90;;;4.30;;
11046;SDS011;5576;50.008;10.596;2023-08-12T02:52:19;4.53;;;4.13;;
11046;SDS011;5576;50.008;10.596;2023-08-12T02:54:45;6.40;;;4.00;;
11046;SDS011;5576;50.008;10.596;2023-08-12T02:57:11;4.40;;;4.00;;
11046;SDS011;5576;50.008;10.596;2023-08-12T02:59:36;4.60;;;4.20;;
11046;SDS011;5576;50.008;10.596;2023-08-12T03:02:02;5.00;;;4.37;;
11046;SDS011;5576;50.008;10.596;2023-08-12T03:04:28;4.72;;;4.20;;
11046;SDS011;5576;50.008;10.596;2023-08-12T03:06:54;5.15;;;4.07;;
11046;SDS011;5576;50.008;10.596;2023-08-12T03:09:20;5.35;;;4.47;;
11046;SDS011;5576;50.008;10.596;2023-08-12T03:11:46;5.93;;;4.25;;
11046;SDS011;5576;50.008;10.596;2023-08-12T03:14:12;4.27;;;3.87;;
11046;SDS011;5576;50.008;10.596;2023-08-12T03:16:38;4.40;;;4.00;;
11046;SDS011;5576;50.008;10.596;2023-08-12T03:19:03;4.22;;;3.83;;
11046;SDS011;5576;50.008;10.596;2023-08-12T03:21:29;4.88;;;3.97;;
11046;SDS011;5576;50.008;10.596;2023-08-12T03:23:55;4.68;;;3.90;;
11046;SDS011;5576;50.008;10.596;2023-08-12T03:26:21;4.40;;;3.90;;
11046;SDS011;5576;50.008;10.596;2023-08-12T03:28:48;5.13;;;4.15;;
11046;SDS011;5576;50.008;10.596;2023-08-12T03:31:16;4.30;;;3.90;;
11046;SDS011;5576;50.008;10.596;2023-08-12T03:33:42;4.20;;;3.85;;
11046;SDS011;5576;50.008;10.596;2023-08-12T03:36:09;4.43;;;3.92;;
11046;SDS011;5576;50.008;10.596;2023-08-12T03:38:35;4.40;;;3.95;;
11046;SDS011;5576;50.008;10.596;2023-08-12T03:41:02;5.43;;;4.20;;
11046;SDS011;5576;50.008;10.596;2023-08-12T03:46:04;4.13;;;3.60;;
11046;SDS011;5576;50.008;10.596;2023-08-12T03:48:30;5.05;;;3.90;;
11046;SDS011;5576;50.008;10.596;2023-08-12T03:50:58;4.20;;;3.80;;
11046;SDS011;5576;50.008;10.596;2023-08-12T03:53:24;4.43;;;3.67;;
11046;SDS011;5576;50.008;10.596;2023-08-12T03:55:51;4.20;;;3.80;;
11046;SDS011;5576;50.008;10.596;2023-08-12T03:58:17;4.50;;;4.10;;
11046;SDS011;5576;50.008;10.596;2023-08-12T04:00:44;5.20;;;4.25;;
11046;SDS011;5576;50.008;10.596;2023-08-12T04:03:12;4.32;;;3.92;;
11046;SDS011;5576;50.008;10.596;2023-08-12T04:05:46;4.40;;;4.00;;
11046;SDS011;5576;50.008;10.596;2023-08-12T04:08:13;4.30;;;3.90;;
11046;SDS011;5576;50.008;10.596;2023-08-12T04:10:39;4.30;;;3.90;;
11046;SDS011;5576;50.008;10.596;2023-08-12T04:13:05;4.43;;;3.90;;
11046;SDS011;5576;50.008;10.596;2023-08-12T04:15:32;4.40;;;4.00;;
11046;SDS011;5576;50.008;10.596;2023-08-12T04:17:58;4.63;;;3.73;;
11046;SDS011;5576;50.008;10.596;2023-08-12T04:20:24;4.25;;;3.85;;
11046;SDS011;5576;50.008;10.596;2023-08-12T04:22:49;4.07;;;3.70;;
11046;SDS011;5576;50.008;10.596;2023-08-12T04:25:16;4.80;;;3.70;;
11046;SDS011;5576;50.008;10.596;2023-08-12T04:27:41;4.03;;;3.63;;
11046;SDS011;5576;50.008;10.596;2023-08-12T04:30:07;4.20;;;3.80;;
11046;SDS011;5576;50.008;10.596;2023-08-12T04:32:33;5.07;;;3.67;;
11046;SDS011;5576;50.008;10.596;2023-08-12T04:34:59;4.18;;;3.60;;
11046;SDS011;5576;50.008;10.596;2023-08-12T04:37:26;4.28;;;3.88;;
11046;SDS011;5576;50.008;10.596;2023-08-12T04:39:53;3.92;;;3.53;;
11046;SDS011;5576;50.008;10.596;2023-08-12T04:42:19;3.83;;;3.42;;
11046;SDS011;5576;50.008;10.596;2023-08-12T04:44:45;4.97;;;3.80;;
11046;SDS011;5576;50.008;10.596;2023-08-12T04:47:12;4.30;;;3.67;;
11046;SDS011;5576;50.008;10.596;2023-08-12T04:49:39;3.85;;;3.53;;
11046;SDS011;5576;50.008;10.596;2023-08-12T04:52:06;3.90;;;3.50;;
11046;SDS011;5576;50.008;10.596;2023-08-12T04:54:32;4.50;;;3.60;;
11046;SDS011;5576;50.008;10.596;2023-08-12T04:56:58;3.90;;;3.53;;
11046;SDS011;5576;50.008;10.596;2023-08-12T04:59:24;4.10;;;3.70;;
11046;SDS011;5576;50.008;10.596;2023-08-12T05:01:51;3.97;;;3.50;;
11046;SDS011;5576;50.008;10.596;2023-08-12T05:04:16;4.53;;;3.60;;
11046;SDS011;5576;50.008;10.596;2023-08-12T05:06:42;4.90;;;3.80;;
11046;SDS011;5576;50.008;10.596;2023-08-12T05:09:08;4.20;;;3.80;;
11046;SDS011;5576;50.008;10.596;2023-08-12T05:11:34;3.90;;;3.60;;
11046;SDS011;5576;50.008;10.596;2023-08-12T05:14:00;4.22;;;3.60;;
11046;SDS011;5576;50.008;10.596;2023-08-12T05:16:25;4.13;;;3.80;;
11046;SDS011;5576;50.008;10.596;2023-08-12T05:18:51;4.40;;;3.47;;
11046;SDS011;5576;50.008;10.596;2023-08-12T05:21:17;4.07;;;3.37;;
11046;SDS011;5576;50.008;10.596;2023-08-12T05:23:44;4.10;;;3.70;;
11046;SDS011;5576;50.008;10.596;2023-08-12T05:26:09;4.30;;;3.60;;
11046;SDS011;5576;50.008;10.596;2023-08-12T05:28:35;4.13;;;3.72;;
11046;SDS011;5576;50.008;10.596;2023-08-12T05:31:01;4.27;;;3.70;;
11046;SDS011;5576;50.008;10.596;2023-08-12T05:33:26;4.60;;;3.40;;
11046;SDS011;5576;50.008;10.596;2023-08-12T05:35:52;5.05;;;3.40;;
11046;SDS011;5576;50.008;10.596;2023-08-12T05:38:18;4.97;;;3.72;;
11046;SDS011;5576;50.008;10.596;2023-08-12T05:40:44;4.28;;;3.40;;
11046;SDS011;5576;50.008;10.596;2023-08-12T05:43:09;4.27;;;3.47;;
11046;SDS011;5576;50.008;10.596;2023-08-12T05:45:35;5.65;;;3.72;;
11046;SDS011;5576;50.008;10.596;2023-08-12T05:48:01;3.67;;;3.37;;
11046;SDS011;5576;50.008;10.596;2023-08-12T05:50:26;4.20;;;3.40;;
11046;SDS011;5576;50.008;10.596;2023-08-12T05:52:52;3.47;;;3.10;;
11046;SDS011;5576;50.008;10.596;2023-08-12T05:55:18;3.77;;;3.43;;
11046;SDS011;5576;50.008;10.596;2023-08-12T05:57:44;4.77;;;3.40;;
11046;SDS011;5576;50.008;10.596;2023-08-12T06:00:09;4.50;;;3.22;;
11046;SDS011;5576;50.008;10.596;2023-08-12T06:02:37;3.78;;;3.47;;
11046;SDS011;5576;50.008;10.596;2023-08-12T06:05:04;3.67;;;3.38;;
11046;SDS011;5576;50.008;10.596;2023-08-12T06:07:30;4.38;;;3.35;;
11046;SDS011;5576;50.008;10.596;2023-08-12T06:09:55;3.97;;;3.53;;
11046;SDS011;5576;50.008;10.596;2023-08-12T06:12:21;3.92;;;3.38;;
11046;SDS011;5576;50.008;10.596;2023-08-12T06:14:47;3.53;;;3.23;;
11046;SDS011;5576;50.008;10.596;2023-08-12T06:17:13;3.85;;;3.50;;
11046;SDS011;5576;50.008;10.596;2023-08-12T06:19:39;3.67;;;3.37;;
11046;SDS011;5576;50.008;10.596;2023-08-12T06:22:05;4.10;;;3.70;;
11046;SDS011;5576;50.008;10.596;2023-08-12T06:24:31;3.88;;;3.47;;
11046;SDS011;5576;50.008;10.596;2023-08-12T06:26:56;4.33;;;3.47;;
11046;SDS011;5576;50.008;10.596;2023-08-12T06:29:22;3.80;;;3.50;;
11046;SDS011;5576;50.008;10.596;2023-08-12T06:31:48;3.40;;;3.10;;
11046;SDS011;5576;50.008;10.596;2023-08-12T06:34:14;3.60;;;3.30;;
11046;SDS011;5576;50.008;10.596;2023-08-12T06:36:39;3.42;;;3.13;;
11046;SDS011;5576;50.008;10.596;2023-08-12T06:39:05;3.33;;;3.03;;
11046;SDS011;5576;50.008;10.596;2023-08-12T06:41:31;4.37;;;3.70;;
11046;SDS011;5576;50.008;10.596;2023-08-12T06:43:56;3.60;;;3.30;;
11046;SDS011;5576;50.008;10.596;2023-08-12T06:46:22;4.20;;;3.33;;
11046;SDS011;5576;50.008;10.596;2023-08-12T06:48:48;3.90;;;3.43;;
11046;SDS011;5576;50.008;10.596;2023-08-12T06:51:13;4.18;;;3.28;;
11046;SDS011;5576;50.008;10.596;2023-08-12T06:53:39;3.50;;;3.20;;
11046;SDS011;5576;50.008;10.596;2023-08-12T06:56:05;3.60;;;3.20;;
11046;SDS011;5576;50.008;10.596;2023-08-12T06:58:31;4.55;;;3.28;;
11046;SDS011;5576;50.008;10.596;2023-08-12T07:00:57;3.75;;;3.38;;
11046;SDS011;5576;50.008;10.596;2023-08-12T07:03:24;3.80;;;3.30;;
11046;SDS011;5576;50.008;10.596;2023-08-12T07:05:50;4.18;;;3.40;;
11046;SDS011;5576;50.008;10.596;2023-08-12T07:08:16;4.80;;;3.22;;
11046;SDS011;5576;50.008;10.596;2023-08-12T07:10:42;3.30;;;3.08;;
11046;SDS011;5576;50.008;10.596;2023-08-12T07:13:08;4.65;;;3.05;;
11046;SDS011;5576;50.008;10.596;2023-08-12T07:15:34;3.40;;;3.10;;
11046;SDS011;5576;50.008;10.596;2023-08-12T07:17:59;4.05;;;3.53;;
11046;SDS011;5576;50.008;10.596;2023-08-12T07:20:25;3.63;;;3.30;;
11046;SDS011;5576;50.008;10.596;2023-08-12T07:22:51;3.80;;;3.30;;
11046;SDS011;5576;50.008;10.596;2023-08-12T07:25:17;3.60;;;3.30;;
11046;SDS011;5576;50.008;10.596;2023-08-12T07:27:42;4.13;;;3.27;;
11046;SDS011;5576;50.008;10.596;2023-08-12T07:30:08;4.30;;;3.80;;
11046;SDS011;5576;50.008;10.596;2023-08-12T07:32:36;3.60;;;3.30;;
11046;SDS011;5576;50.008;10.596;2023-08-12T07:35:03;3.63;;;3.33;;
11046;SDS011;5576;50.008;10.596;2023-08-12T07:37:30;3.50;;;3.00;;
11046;SDS011;5576;50.008;10.596;2023-08-12T07:39:56;4.25;;;3.30;;
11046;SDS011;5576;50.008;10.596;2023-08-12T07:42:22;3.53;;;3.20;;
11046;SDS011;5576;50.008;10.596;2023-08-12T07:44:48;4.60;;;3.40;;
11046;SDS011;5576;50.008;10.596;2023-08-12T07:47:14;4.00;;;3.20;;
11046;SDS011;5576;50.008;10.596;2023-08-12T07:49:42;4.57;;;3.55;;
11046;SDS011;5576;50.008;10.596;2023-08-12T07:52:08;3.35;;;3.05;;
11046;SDS011;5576;50.008;10.596;2023-08-12T07:54:33;3.57;;;3.20;;
11046;SDS011;5576;50.008;10.596;2023-08-12T07:56:59;3.40;;;3.10;;
11046;SDS011;5576;50.008;10.596;2023-08-12T07:59:25;3.60;;;3.30;;
11046;SDS011;5576;50.008;10.596;2023-08-12T08:01:51;3.60;;;3.30;;
11046;SDS011;5576;50.008;10.596;2023-08-12T08:04:17;4.45;;;3.60;;
11046;SDS011;5576;50.008;10.596;2023-08-12T08:06:43;3.58;;;3.10;;
11046;SDS011;5576;50.008;10.596;2023-08-12T08:09:09;3.40;;;3.10;;
11046;SDS011;5576;50.008;10.596;2023-08-12T08:11:35;3.40;;;3.10;;
11046;SDS011;5576;50.008;10.596;2023-08-12T08:14:02;3.58;;;3.10;;
11046;SDS011;5576;50.008;10.596;2023-08-12T08:16:28;5.50;;;2.97;;
11046;SDS011;5576;50.008;10.596;2023-08-12T08:18:54;3.60;;;3.20;;
11046;SDS011;5576;50.008;10.596;2023-08-12T08:21:20;3.42;;;3.08;;
11046;SDS011;5576;50.008;10.596;2023-08-12T08:23:45;3.65;;;3.17;;
11046;SDS011;5576;50.008;10.596;2023-08-12T08:26:11;3.67;;;3.30;;
11046;SDS011;5576;50.008;10.596;2023-08-12T08:28:38;3.85;;;3.10;;
11046;SDS011;5576;50.008;10.596;2023-08-12T08:31:04;5.43;;;3.23;;
11046;SDS011;5576;50.008;10.596;2023-08-12T08:33:29;3.50;;;3.15;;
11046;SDS011;5576;50.008;10.596;2023-08-12T08:35:55;3.55;;;3.25;;
11046;SDS011;5576;50.008;10.596;2023-08-12T08:38:21;3.60;;;3.30;;
11046;SDS011;5576;50.008;10.596;2023-08-12T08:40:48;4.23;;;3.30;;
11046;SDS011;5576;50.008;10.596;2023-08-12T08:43:15;3.38;;;3.00;;
11046;SDS011;5576;50.008;10.596;2023-08-12T08:45:46;3.40;;;3.10;;
11046;SDS011;5576;50.008;10.596;2023-08-12T08:48:13;4.72;;;3.40;;
11046;SDS011;5576;50.008;10.596;2023-08-12T08:50:38;3.50;;;3.20;;
11046;SDS011;5576;50.008;10.596;2023-08-12T08:53:06;3.10;;;2.90;;
11046;SDS011;5576;50.008;10.596;2023-08-12T08:55:31;3.40;;;3.03;;
11046;SDS011;5576;50.008;10.596;2023-08-12T08:57:57;3.50;;;2.92;;
11046;SDS011;5576;50.008;10.596;2023-08-12T09:00:24;4.57;;;2.72;;
11046;SDS011;5576;50.008;10.596;2023-08-12T09:02:50;3.83;;;3.20;;
11046;SDS011;5576;50.008;10.596;2023-08-12T09:05:18;4.10;;;3.13;;
11046;SDS011;5576;50.008;10.596;2023-08-12T09:07:45;3.50;;;3.00;;
11046;SDS011;5576;50.008;10.596;2023-08-12T09:10:12;3.50;;;3.20;;
11046;SDS011;5576;50.008;10.596;2023-08-12T09:12:38;3.63;;;3.13;;
11046;SDS011;5576;50.008;10.596;2023-08-12T09:15:06;3.72;;;3.22;;
11046;SDS011;5576;50.008;10.596;2023-08-12T09:17:32;4.22;;;3.25;;
11046;SDS011;5576;50.008;10.596;2023-08-12T09:19:58;5.00;;;3.65;;
11046;SDS011;5576;50.008;10.596;2023-08-12T09:22:24;3.80;;;3.15;;
11046;SDS011;5576;50.008;10.596;2023-08-12T09:24:56;3.67;;;3.30;;
11046;SDS011;5576;50.008;10.596;2023-08-12T09:27:23;3.60;;;3.30;;
11046;SDS011;5576;50.008;10.596;2023-08-12T09:29:49;3.90;;;3.30;;
11046;SDS011;5576;50.008;10.596;2023-08-12T09:32:20;5.55;;;3.55;;
11046;SDS011;5576;50.008;10.596;2023-08-12T09:34:47;3.30;;;3.00;;
11046;SDS011;5576;50.008;10.596;2023-08-12T09:37:14;3.40;;;3.05;;
11046;SDS011;5576;50.008;10.596;2023-08-12T09:39:40;3.55;;;3.25;;
11046;SDS011;5576;50.008;10.596;2023-08-12T09:42:06;3.90;;;3.17;;
11046;SDS011;5576;50.008;10.596;2023-08-12T09:44:36;3.97;;;3.10;;
11046;SDS011;5576;50.008;10.596;2023-08-12T09:47:02;3.33;;;3.10;;
11046;SDS011;5576;50.008;10.596;2023-08-12T09:49:28;3.17;;;2.87;;
11046;SDS011;5576;50.008;10.596;2023-08-12T09:51:55;4.25;;;3.22;;
11046;SDS011;5576;50.008;10.596;2023-08-12T09:54:21;3.50;;;3.08;;
11046;SDS011;5576;50.008;10.596;2023-08-12T09:56:49;3.33;;;3.03;;
11046;SDS011;5576;50.008;10.596;2023-08-12T09:59:21;3.83;;;3.22;;
11046;SDS011;5576;50.008;10.596;2023-08-12T10:01:49;3.40;;;3.10;;
11046;SDS011;5576;50.008;10.596;2023-08-12T10:04:17;3.33;;;3.03;;
11046;SDS011;5576;50.008;10.596;2023-08-12T10:06:43;3.53;;;3.20;;
11046;SDS011;5576;50.008;10.596;2023-08-12T10:09:10;3.60;;;3.30;;
11046;SDS011;5576;50.008;10.596;2023-08-12T10:11:37;4.45;;;3.20;;
11046;SDS011;5576;50.008;10.596;2023-08-12T10:14:03;3.90;;;3.28;;
11046;SDS011;5576;50.008;10.596;2023-08-12T10:16:29;3.72;;;3.42;;
11046;SDS011;5576;50.008;10.596;2023-08-12T10:18:56;3.40;;;3.10;;
11046;SDS011;5576;50.008;10.596;2023-08-12T10:21:23;3.90;;;3.50;;
11046;SDS011;5576;50.008;10.596;2023-08-12T10:23:49;3.67;;;3.38;;
11046;SDS011;5576;50.008;10.596;2023-08-12T10:26:17;4.57;;;3.45;;
11046;SDS011;5576;50.008;10.596;2023-08-12T10:28:43;4.10;;;3.53;;
11046;SDS011;5576;50.008;10.596;2023-08-12T10:31:10;3.50;;;3.20;;
11046;SDS011;5576;50.008;10.596;2023-08-12T10:33:37;4.33;;;3.50;;
11046;SDS011;5576;50.008;10.596;2023-08-12T10:36:04;4.57;;;3.42;;
11046;SDS011;5576;50.008;10.596;2023-08-12T10:38:31;4.13;;;3.50;;
11046;SDS011;5576;50.008;10.596;2023-08-12T10:43:51;3.33;;;3.03;;
11046;SDS011;5576;50.008;10.596;2023-08-12T10:46:22;5.00;;;3.60;;
11046;SDS011;5576;50.008;10.596;2023-08-12T10:49:05;4.10;;;3.70;;
11046;SDS011;5576;50.008;10.596;2023-08-12T10:54:13;3.97;;;3.60;;
11046;SDS011;5576;50.008;10.596;2023-08-12T10:59:52;3.95;;;3.65;;
11046;SDS011;5576;50.008;10.596;2023-08-12T11:02:34;4.53;;;3.50;;
11046;SDS011;5576;50.008;10.596;2023-08-12T11:05:03;3.95;;;3.60;;
11046;SDS011;5576;50.008;10.596;2023-08-12T11:10:03;6.17;;;3.43;;
11046;SDS011;5576;50.008;10.596;2023-08-12T11:12:35;6.72;;;3.67;;
11046;SDS011;5576;50.008;10.596;2023-08-12T11:15:01;3.95;;;3.50;;
11046;SDS011;5576;50.008;10.596;2023-08-12T11:17:30;4.53;;;3.78;;
11046;SDS011;5576;50.008;10.596;2023-08-12T11:20:02;3.72;;;3.42;;
11046;SDS011;5576;50.008;10.596;2023-08-12T11:22:30;4.75;;;3.50;;
11046;SDS011;5576;50.008;10.596;2023-08-12T11:24:57;3.95;;;3.55;;
11046;SDS011;5576;50.008;10.596;2023-08-12T11:27:23;4.22;;;3.90;;
11046;SDS011;5576;50.008;10.596;2023-08-12T11:29:49;5.15;;;3.60;;
11046;SDS011;5576;50.008;10.596;2023-08-12T11:32:16;4.80;;;3.97;;
11046;SDS011;5576;50.008;10.596;2023-08-12T11:34:43;4.20;;;3.80;;
11046;SDS011;5576;50.008;10.596;2023-08-12T11:37:09;4.75;;;3.85;;
11046;SDS011;5576;50.008;10.596;2023-08-12T11:39:35;3.90;;;3.30;;
11046;SDS011;5576;50.008;10.596;2023-08-12T11:42:02;4.15;;;3.75;;
11046;SDS011;5576;50.008;10.596;2023-08-12T11:44:28;4.72;;;3.60;;
11046;SDS011;5576;50.008;10.596;2023-08-12T11:46:54;4.90;;;3.60;;
11046;SDS011;5576;50.008;10.596;2023-08-12T11:49:20;4.30;;;3.90;;
11046;SDS011;5576;50.008;10.596;2023-08-12T11:51:46;3.83;;;3.50;;
11046;SDS011;5576;50.008;10.596;2023-08-12T11:54:14;3.80;;;3.50;;
11046;SDS011;5576;50.008;10.596;2023-08-12T11:56:40;3.67;;;3.37;;
11046;SDS011;5576;50.008;10.596;2023-08-12T11:59:06;3.75;;;3.30;;
11046;SDS011;5576;50.008;10.596;2023-08-12T12:01:32;4.20;;;3.80;;
11046;SDS011;5576;50.008;10.596;2023-08-12T12:04:01;3.93;;;3.63;;
11046;SDS011;5576;50.008;10.596;2023-08-12T12:06:29;3.70;;;3.20;;
11046;SDS011;5576;50.008;10.596;2023-08-12T12:08:59;3.88;;;3.58;;
11046;SDS011;5576;50.008;10.596;2023-08-12T12:11:29;6.32;;;3.55;;
11046;SDS011;5576;50.008;10.596;2023-08-12T12:13:55;3.80;;;3.20;;
11046;SDS011;5576;50.008;10.596;2023-08-12T12:16:21;5.40;;;3.50;;
11046;SDS011;5576;50.008;10.596;2023-08-12T12:18:46;3.80;;;3.50;;
11046;SDS011;5576;50.008;10.596;2023-08-12T12:21:19;3.37;;;3.07;;
11046;SDS011;5576;50.008;10.596;2023-08-12T12:23:46;3.47;;;3.15;;
11046;SDS011;5576;50.008;10.596;2023-08-12T12:26:12;3.60;;;3.30;;
11046;SDS011;5576;50.008;10.596;2023-08-12T12:28:38;4.10;;;3.58;;
11046;SDS011;5576;50.008;10.596;2023-08-12T12:31:04;4.20;;;3.80;;
11046;SDS011;5576;50.008;10.596;2023-08-12T12:33:31;3.80;;;3.50;;
11046;SDS011;5576;50.008;10.596;2023-08-12T12:35:57;4.10;;;3.60;;
11046;SDS011;5576;50.008;10.596;2023-08-12T12:38:22;5.00;;;3.70;;
11046;SDS011;5576;50.008;10.596;2023-08-12T12:40:48;4.38;;;3.88;;
11046;SDS011;5576;50.008;10.596;2023-08-12T12:43:14;4.55;;;3.40;;
11046;SDS011;5576;50.008;10.596;2023-08-12T12:45:39;3.97;;;3.60;;
11046;SDS011;5576;50.008;10.596;2023-08-12T12:48:05;4.00;;;3.70;;
11046;SDS011;5576;50.008;10.596;2023-08-12T12:50:31;5.00;;;3.40;;
11046;SDS011;5576;50.008;10.596;2023-08-12T12:52:57;4.13;;;3.60;;
11046;SDS011;5576;50.008;10.596;2023-08-12T12:55:23;4.17;;;3.70;;
11046;SDS011;5576;50.008;10.596;2023-08-12T12:57:48;4.05;;;3.67;;
11046;SDS011;5576;50.008;10.596;2023-08-12T13:00:14;4.00;;;3.60;;
11046;SDS011;5576;50.008;10.596;2023-08-12T13:02:41;2.80;;;1.75;;
11046;SDS011;5576;50.008;10.596;2023-08-12T13:05:08;2.88;;;0.80;;
11046;SDS011;5576;50.008;10.596;2023-08-12T13:07:34;1.40;;;0.70;;
11046;SDS011;5576;50.008;10.596;2023-08-12T13:09:59;1.02;;;0.80;;
11046;SDS011;5576;50.008;10.596;2023-08-12T13:12:25;1.13;;;0.60;;
11046;SDS011;5576;50.008;10.596;2023-08-12T13:14:51;1.33;;;0.63;;
11046;SDS011;5576;50.008;10.596;2023-08-12T13:17:16;1.33;;;0.60;;
11046;SDS011;5576;50.008;10.596;2023-08-12T13:19:42;1.10;;;0.70;;
11046;SDS011;5576;50.008;10.596;2023-08-12T13:22:08;1.67;;;0.73;;
11046;SDS011;5576;50.008;10.596;2023-08-12T13:24:33;1.40;;;0.70;;
11046;SDS011;5576;50.008;10.596;2023-08-12T13:26:59;2.03;;;0.97;;
11046;SDS011;5576;50.008;10.596;2023-08-12T13:29:25;1.77;;;0.90;;
11046;SDS011;5576;50.008;10.596;2023-08-12T13:31:51;2.08;;;0.90;;
11046;SDS011;5576;50.008;10.596;2023-08-12T13:34:17;1.88;;;0.80;;
11046;SDS011;5576;50.008;10.596;2023-08-12T13:36:42;1.60;;;0.83;;
11046;SDS011;5576;50.008;10.596;2023-08-12T13:39:08;2.20;;;0.95;;
11046;SDS011;5576;50.008;10.596;2023-08-12T13:41:34;1.90;;;0.90;;
11046;SDS011;5576;50.008;10.596;2023-08-12T13:43:59;2.20;;;1.20;;
11046;SDS011;5576;50.008;10.596;2023-08-12T13:46:25;3.33;;;1.73;;
11046;SDS011;5576;50.008;10.596;2023-08-12T13:48:52;2.78;;;1.50;;
11046;SDS011;5576;50.008;10.596;2023-08-12T13:51:18;2.65;;;1.20;;
11046;SDS011;5576;50.008;10.596;2023-08-12T13:53:43;2.08;;;1.17;;
11046;SDS011;5576;50.008;10.596;2023-08-12T13:56:09;1.80;;;0.90;;
11046;SDS011;5576;50.008;10.596;2023-08-12T13:58:35;1.92;;;0.85;;
11046;SDS011;5576;50.008;10.596;2023-08-12T14:01:01;1.37;;;0.90;;
11046;SDS011;5576;50.008;10.596;2023-08-12T14:03:27;1.98;;;0.93;;
11046;SDS011;5576;50.008;10.596;2023-08-12T14:05:53;2.45;;;1.08;;
11046;SDS011;5576;50.008;10.596;2023-08-12T14:08:19;2.13;;;1.00;;
11046;SDS011;5576;50.008;10.596;2023-08-12T14:10:46;2.23;;;1.40;;
11046;SDS011;5576;50.008;10.596;2023-08-12T14:13:12;2.22;;;1.10;;
11046;SDS011;5576;50.008;10.596;2023-08-12T14:15:38;1.60;;;1.07;;
11046;SDS011;5576;50.008;10.596;2023-08-12T14:18:05;4.03;;;1.15;;
11046;SDS011;5576;50.008;10.596;2023-08-12T14:20:31;2.25;;;1.23;;
11046;SDS011;5576;50.008;10.596;2023-08-12T14:22:56;3.00;;;1.00;;
11046;SDS011;5576;50.008;10.596;2023-08-12T14:25:22;2.80;;;1.10;;
11046;SDS011;5576;50.008;10.596;2023-08-12T14:27:48;1.73;;;1.00;;
11046;SDS011;5576;50.008;10.596;2023-08-12T14:30:14;2.15;;;1.05;;
11046;SDS011;5576;50.008;10.596;2023-08-12T14:32:39;2.00;;;1.10;;
11046;SDS011;5576;50.008;10.596;2023-08-12T14:35:05;1.63;;;0.83;;
11046;SDS011;5576;50.008;10.596;2023-08-12T14:37:31;2.40;;;1.17;;
11046;SDS011;5576;50.008;10.596;2023-08-12T14:39:57;1.92;;;1.00;;
11046;SDS011;5576;50.008;10.596;2023-08-12T14:42:23;1.73;;;1.02;;
11046;SDS011;5576;50.008;10.596;2023-08-12T14:44:48;1.80;;;1.10;;
11046;SDS011;5576;50.008;10.596;2023-08-12T14:47:14;2.57;;;1.00;;
11046;SDS011;5576;50.008;10.596;2023-08-12T14:49:40;1.80;;;1.08;;
11046;SDS011;5576;50.008;10.596;2023-08-12T14:52:14;2.53;;;1.05;;
11046;SDS011;5576;50.008;10.596;2023-08-12T14:54:40;2.42;;;1.00;;
11046;SDS011;5576;50.008;10.596;2023-08-12T14:57:06;1.83;;;1.00;;
11046;SDS011;5576;50.008;10.596;2023-08-12T14:59:31;2.00;;;0.98;;